Latest Weather Observations for Moranbah Airport

IDQ60801

Issued at 9:12 pm EST Saturday 23 February 2019 (issued every 10 minutes, with the page automatically refreshed every 10 minutes)

About weather observations | Map of weather stations | Latest weather observations for QLD | Other Formats
Station Details ID: 034035 Name: MORANBAH AIRPORT Lat: -22.06 Lon: 148.08 Height: 232.2 m
Data from the previous 72 hours. | See also: Recent months at Moranbah Airport
Date/Time
EST
Temp
°C
App
Temp
°C
Dew
Point
°C
Rel
Hum
%
Delta-T
°C
Wind Press
QNH
hPa
Press
MSL
hPa
Rain since
9am
mm
Dir  Spd
km/h
Gust
km/h
Spd
kts
Gust
kts
23/09:00pm 23.9 26.4 20.2 80 2.4 NNE 7 9 4 5 1013.8 1012.2 0.2
23/08:30pm 23.8 26.0 20.3 81 2.3 NNE 9 11 5 6 1013.6 1012.0 0.2
23/08:00pm 24.2 26.7 20.3 79 2.6 NE 7 9 4 5 1013.4 1011.8 0.2
23/07:30pm 24.7 26.5 20.4 77 2.8 NNE 11 15 6 8 1012.7 1011.1 0.2
23/07:00pm 25.2 26.8 20.0 73 3.4 NNE 11 15 6 8 1012.5 1010.9 0.2
23/06:30pm 25.7 26.5 19.8 70 3.9 NE 15 24 8 13 1011.9 1010.4 0.2
23/06:00pm 26.4 25.2 19.3 65 4.6 NE 24 30 13 16 1011.8 1010.3 0.2
23/05:30pm 27.0 25.9 19.4 63 5.0 ENE 24 35 13 19 1011.9 1010.4 0.2
23/05:00pm 28.3 26.7 20.1 61 5.4 ENE 28 33 15 18 1011.7 1010.2 0.2
23/04:30pm 29.0 27.2 18.7 53 6.7 E 26 35 14 19 1011.7 1010.2 0.2
23/04:00pm 29.1 28.5 19.7 57 6.2 ENE 22 28 12 15 1011.4 1009.9 0.2
23/03:30pm 29.2 29.6 20.9 61 5.6 NE 20 26 11 14 1011.2 1009.7 0.0
23/03:00pm 26.6 27.0 20.9 71 3.8 NE 20 24 11 13 1011.0 1009.4 0.0
23/02:30pm 25.2 24.6 19.8 72 3.5 ENE 22 28 12 15 1011.5 1010.0 0.0
23/02:00pm 24.6 24.8 22.1 86 1.7 NNE 24 30 13 16 1011.8 1010.3 0.0
23/01:44pm 25.9 25.3 20.5 72 3.6 NNE 24 37 13 20 1011.8 1010.3 0.0
23/01:30pm 31.0 32.8 18.7 48 8.0 ENE 7 11 4 6 1011.7 1010.2 0.0
23/01:00pm 31.2 32.5 18.5 46 8.3 ESE 9 15 5 8 1011.7 1010.2 0.0
23/12:30pm 31.4 33.1 18.0 44 8.7 NNW 6 11 3 6 1012.1 1010.6 0.0
23/12:00pm 31.2 31.4 18.5 46 8.3 ENE 15 24 8 13 1012.4 1010.8 0.0
23/11:30am 31.4 31.8 20.7 53 7.2 ESE 19 26 10 14 1012.8 1011.2 0.0
23/11:00am 30.3 30.1 20.5 55 6.6 E 22 28 12 15 1013.2 1011.6 0.0
23/10:30am 29.6 31.3 19.3 54 6.8 NE 9 19 5 10 1013.5 1011.9 0.0
23/10:00am 28.5 29.5 19.4 57 6.0 NNE 13 19 7 10 1013.8 1012.2 0.0
23/09:30am 28.9 29.4 20.1 59 5.8 NE 17 24 9 13 1013.7 1012.1 0.0
23/09:00am 27.8 28.6 19.8 61 5.3 NE 15 20 8 11 1013.5 1011.9 3.2
23/08:30am 27.3 29.2 21.3 69 4.0 ENE 13 20 7 11 1013.3 1011.7 3.2
23/08:00am 26.1 28.2 20.9 73 3.5 E 11 15 6 8 1013.2 1011.6 3.2
23/07:30am 25.0 26.6 21.5 81 2.3 SE 15 19 8 10 1012.8 1011.2 3.2
23/07:00am 24.0 26.8 21.5 86 1.7 SE 9 15 5 8 1012.3 1010.7 3.2
23/06:30am 23.8 25.5 20.9 84 1.9 SE 13 17 7 9 1011.8 1010.3 3.2
23/06:00am 23.8 25.6 20.3 81 2.3 ESE 11 13 6 7 1011.4 1009.9 3.2
23/05:30am 24.3 25.6 20.2 78 2.7 NE 13 20 7 11 1010.9 1009.3 3.2
23/05:00am 24.0 25.4 21.1 84 1.9 NE 15 22 8 12 1010.5 1008.9 3.2
23/04:30am 23.8 24.3 21.1 85 1.8 NE 20 28 11 15 1010.2 1008.6 3.2
23/04:00am 23.5 23.8 21.6 89 1.3 E 22 28 12 15 1010.5 1008.9 3.2
23/03:30am 23.1 24.0 21.5 91 1.1 E 19 30 10 16 1010.7 1009.1 3.2
23/03:00am 23.1 22.6 20.8 87 1.5 ESE 24 30 13 16 1010.7 1009.1 3.2
23/02:30am 22.9 27.2 21.2 90 1.1 CALM 0 6 0 3 1010.0 1008.4 3.2
23/02:00am 22.7 23.7 21.0 90 1.1 E 17 22 9 12 1010.5 1008.9 3.0
23/01:30am 22.7 23.8 21.3 92 0.9 ESE 17 20 9 11 1012.0 1010.5 2.6
23/01:00am 22.9 22.9 21.0 89 1.3 SSE 22 30 12 16 1011.8 1010.3 1.4
23/12:30am 23.9 23.9 19.0 74 3.1 SSE 17 20 9 11 1012.0 1010.5 0.2
23/12:00am 24.9 26.0 17.9 65 4.4 NNE 9 13 5 7 1010.9 1009.3 0.2
 
Date/Time
EST
Temp
°C
App
Temp
°C
Dew
Point
°C
Rel
Hum
%
Delta-T
°C
Wind Press
QNH
hPa
Press
MSL
hPa
Rain since
9am
mm
Dir  Spd
km/h
Gust
km/h
Spd
kts
Gust
kts
22/11:30pm 25.0 26.0 17.7 64 4.6 NW 9 13 5 7 1010.9 1009.3 0.2
22/11:00pm 25.4 24.2 17.1 60 5.2 W 19 26 10 14 1010.9 1009.3 0.2
22/10:30pm 26.4 26.2 18.5 62 5.1 W 17 26 9 14 1011.1 1009.5 0.2
22/10:00pm 25.6 27.4 19.5 69 4.0 W 9 11 5 6 1010.4 1008.8 0.2
22/09:30pm 25.2 27.3 20.2 74 3.3 N 9 17 5 9 1009.8 1008.2 0.2
22/09:00pm 25.2 27.1 20.5 75 3.1 NE 11 17 6 9 1010.2 1008.6 0.2
22/08:30pm 28.4 28.8 19.1 57 6.1 NNW 15 26 8 14 1010.3 1008.7 0.0
22/08:00pm 29.7 28.8 19.1 53 6.9 N 22 32 12 17 1009.4 1007.8 0.0
22/07:30pm 31.4 31.0 19.4 49 7.9 NNE 20 26 11 14 1008.3 1006.7 0.0
22/07:00pm 32.0 31.7 18.2 43 9.0 NNE 17 22 9 12 1007.5 1006.0 0.0
22/06:30pm 32.5 32.2 18.3 43 9.3 NE 17 24 9 13 1006.9 1005.3 0.0
22/06:00pm 32.3 30.9 17.0 40 9.8 E 20 28 11 15 1006.6 1005.0 0.0
22/05:30pm 34.4 32.5 16.7 34 11.4 E 22 30 12 16 1006.4 1004.8 0.0
22/05:00pm 34.9 33.7 16.2 32 12.0 E 17 24 9 13 1006.2 1004.6 0.0
22/04:30pm 35.1 33.8 17.3 34 11.5 ENE 20 26 11 14 1006.3 1004.7 0.0
22/04:00pm 34.6 33.3 16.9 35 11.4 ENE 19 28 10 15 1006.5 1004.9 0.0
22/03:30pm 35.0 33.9 17.2 34 11.5 ENE 19 28 10 15 1006.8 1005.2 0.0
22/03:00pm 34.1 33.6 17.8 38 10.6 E 17 26 9 14 1007.1 1005.5 0.0
22/02:30pm 34.8 34.2 17.5 35 11.2 E 17 26 9 14 1007.4 1005.9 0.0
22/02:00pm 35.3 36.0 18.8 37 10.9 ENE 13 24 7 13 1007.6 1006.1 0.0
22/01:30pm 34.3 33.6 18.3 38 10.5 E 19 26 10 14 1008.1 1006.5 0.0
22/01:00pm 34.1 33.8 18.2 39 10.4 ENE 17 32 9 17 1008.4 1006.8 0.0
22/12:30pm 33.4 32.9 18.7 41 9.7 ENE 19 28 10 15 1008.8 1007.2 0.0
22/12:00pm 32.9 33.1 19.4 45 9.0 NE 17 28 9 15 1008.9 1007.3 0.0
22/11:30am 32.1 30.2 17.6 42 9.4 ESE 24 35 13 19 1009.5 1007.9 0.0
22/11:00am 32.2 31.9 19.5 47 8.4 ENE 20 28 11 15 1009.6 1008.0 0.0
22/10:30am 31.1 31.1 19.8 51 7.5 E 19 28 10 15 1009.9 1008.3 0.0
22/10:00am 30.3 28.7 20.0 54 6.8 E 28 33 15 18 1010.0 1008.4 0.0
22/09:30am 29.3 28.6 21.0 61 5.6 E 26 35 14 19 1009.9 1008.3 0.0
22/09:00am 27.8 28.0 21.3 67 4.4 E 22 28 12 15 1009.7 1008.1 0.0
22/08:30am 26.3 27.4 21.3 74 3.3 ESE 17 20 9 11 1009.5 1007.9 0.0
22/08:00am 26.1 27.1 21.1 74 3.3 ENE 17 24 9 13 1009.0 1007.4 0.0
22/07:30am 25.7 26.7 21.1 76 3.1 ENE 17 20 9 11 1008.8 1007.2 0.0
22/07:00am 25.9 26.7 20.7 73 3.4 ENE 17 24 9 13 1008.6 1007.0 0.0
22/06:30am 25.7 26.9 20.7 74 3.3 ESE 15 20 8 11 1008.8 1007.2 0.0
22/06:00am 25.6 25.9 20.4 73 3.4 ESE 19 24 10 13 1008.4 1006.8 0.0
22/05:30am 25.8 27.1 20.1 71 3.7 SE 13 17 7 9 1008.0 1006.4 0.0
22/05:00am 25.5 27.2 20.1 72 3.5 ENE 11 15 6 8 1007.3 1005.7 0.0
22/04:30am 25.5 25.9 19.9 71 3.7 ENE 17 22 9 12 1006.9 1005.3 0.0
22/04:00am 25.8 26.2 19.9 70 3.9 E 17 24 9 13 1006.8 1005.2 0.0
22/03:30am 26.0 27.1 21.2 75 3.2 E 17 22 9 12 1006.4 1004.8 0.0
22/03:00am 26.0 27.0 22.1 79 2.6 E 20 24 11 13 1006.6 1005.0 0.0
22/02:30am 26.2 26.8 22.1 78 2.8 ESE 22 33 12 18 1006.7 1005.1 0.0
22/02:00am 26.4 26.0 22.3 78 2.8 SE 28 37 15 20 1006.9 1005.3 0.0
22/01:30am 26.5 27.5 21.7 75 3.2 E 19 26 10 14 1005.8 1004.2 0.0
22/01:00am 27.1 28.8 21.6 72 3.7 E 15 20 8 11 1005.6 1004.0 0.0
22/12:30am 27.5 28.3 19.0 59 5.5 E 13 17 7 9 1005.6 1004.0 0.0
22/12:00am 27.9 31.3 19.4 60 5.6 CALM 0 0 0 0 1005.7 1004.1 0.0
 
Date/Time
EST
Temp
°C
App
Temp
°C
Dew
Point
°C
Rel
Hum
%
Delta-T
°C
Wind Press
QNH
hPa
Press
MSL
hPa
Rain since
9am
mm
Dir  Spd
km/h
Gust
km/h
Spd
kts
Gust
kts
21/11:30pm 28.2 30.2 20.0 61 5.4 NW 9 13 5 7 1005.8 1004.2 0.0
21/11:00pm 28.0 31.0 19.2 58 5.8 SE 2 6 1 3 1006.0 1004.4 0.0
21/10:30pm 28.8 31.0 20.3 60 5.6 N 9 13 5 7 1005.8 1004.2 0.0
21/10:00pm 28.3 29.9 19.2 57 6.0 N 9 11 5 6 1005.9 1004.3 0.0
21/09:30pm 28.3 31.3 18.4 55 6.4 CALM 0 6 0 3 1005.8 1004.2 0.0
21/09:00pm 28.8 31.6 18.0 52 7.0 CALM 0 0 0 0 1005.5 1003.9 0.0
21/08:30pm 29.2 32.0 18.9 53 6.7 NW 2 6 1 3 1005.1 1003.5 0.0
21/08:00pm 30.0 32.2 19.1 52 7.2 NNE 6 7 3 4 1004.7 1003.1 0.0
21/07:30pm 30.3 30.8 18.4 49 7.7 N 13 17 7 9 1004.6 1003.0 0.0
21/07:00pm 31.7 31.6 18.7 46 8.5 N 17 20 9 11 1004.3 1002.7 0.0
21/06:30pm 33.6 34.6 17.7 38 10.3 NE 9 17 5 9 1003.8 1002.2 0.0
21/06:00pm 35.1 35.2 15.4 30 12.5 WSW 9 19 5 10 1003.4 1001.7 0.0
21/05:30pm 36.3 36.0 16.5 31 12.8 SSE 13 20 7 11 1003.3 1001.6 0.0
21/05:00pm 37.1 36.3 16.1 29 13.5 ESE 15 22 8 12 1002.9 1001.3 0.0
21/04:30pm 37.1 36.5 16.6 29 13.3 ESE 15 24 8 13 1002.8 1001.2 0.0
21/04:00pm 37.1 37.6 16.6 29 13.3 E 9 15 5 8 1002.9 1001.3 0.0
21/03:30pm 36.8 36.3 16.9 31 12.9 SSE 15 24 8 13 1003.5 1001.8 0.0
21/03:00pm 37.8 37.8 17.2 29 13.5 S 13 20 7 11 1003.7 1002.1 0.0
21/02:30pm 36.5 35.5 16.6 30 12.8 N 17 28 9 15 1004.0 1002.4 0.0
21/02:00pm 36.9 36.8 17.0 31 13.0 SSE 13 22 7 12 1004.3 1002.7 0.0
21/01:30pm 36.9 36.7 17.5 32 12.7 ESE 15 24 8 13 1004.9 1003.3 0.0
21/01:00pm 36.7 37.3 17.8 32 12.4 SE 11 22 6 12 1005.4 1003.8 0.0
21/12:30pm 36.3 35.8 17.9 33 12.1 ENE 17 32 9 17 1006.0 1004.4 0.0
21/12:00pm 34.5 33.4 17.7 37 11.0 ENE 20 30 11 16 1006.5 1004.9 0.0
21/11:30am 34.5 34.1 18.9 39 10.3 ENE 19 30 10 16 1006.9 1005.3 0.0
21/11:00am 34.3 34.2 19.5 41 9.9 ESE 19 30 10 16 1007.4 1005.9 0.0
21/10:30am 33.4 34.0 20.2 46 8.9 NE 17 24 9 13 1007.6 1006.1 0.0
21/10:00am 32.0 32.4 20.6 51 7.7 NE 19 28 10 15 1007.6 1006.1 0.0
21/09:30am 30.3 30.8 21.1 58 6.2 ENE 20 26 11 14 1007.9 1006.3 0.0
21/09:00am 29.1 29.5 21.8 64 5.0 E 22 32 12 17 1007.8 1006.2 0.6
21/08:30am 27.9 28.0 21.9 70 4.1 E 24 33 13 18 1007.5 1006.0 0.6
21/08:25am 27.8 28.0 22.1 71 3.9 E 24 33 13 18 1007.4 1005.9 0.6
21/08:00am 26.6 26.7 21.8 75 3.2 ESE 24 32 13 17 1007.4 1005.9 0.6
21/07:30am 25.5 25.4 21.4 78 2.7 SE 24 30 13 16 1006.9 1005.3 0.6
21/07:00am 25.1 26.3 22.2 84 2.0 SE 19 24 10 13 1006.6 1005.0 0.6
21/06:57am 25.0 26.3 22.3 85 1.8 SE 19 26 10 14 1006.6 1005.0 0.6
21/06:44am 24.7 26.4 22.4 87 1.6 ESE 17 20 9 11 1006.4 1004.8 0.6
21/06:30am 24.6 26.4 22.5 88 1.4 ESE 17 22 9 12 1006.1 1004.5 0.6
21/06:00am 24.4 25.7 22.7 90 1.2 SE 20 26 11 14 1005.8 1004.2 0.6
21/05:30am 24.4 25.4 22.8 91 1.1 SE 22 30 12 16 1005.4 1003.8 0.6
21/05:00am 24.0 25.1 22.4 91 1.1 SE 20 26 11 14 1005.0 1003.4 0.6
21/04:52am 24.0 24.4 22.4 91 1.1 SE 24 32 13 17 1004.9 1003.3 0.6
21/04:30am 23.9 24.6 22.2 90 1.1 SE 22 30 12 16 1004.7 1003.1 0.6
21/04:00am 24.3 24.6 22.2 88 1.4 SE 24 30 13 16 1004.6 1003.0 0.6
21/03:30am 24.4 26.1 22.3 88 1.4 SE 17 24 9 13 1004.6 1003.0 0.6
21/03:00am 24.4 25.7 21.7 85 1.8 SE 17 20 9 11 1004.3 1002.7 0.6
21/02:30am 24.5 24.8 20.4 78 2.7 SE 19 22 10 12 1004.4 1002.8 0.6
21/02:00am 23.8 24.2 19.1 75 3.0 SE 15 19 8 10 1004.4 1002.8 0.6
21/01:30am 24.1 26.4 19.4 75 3.0 S 6 7 3 4 1004.2 1002.6 0.6
21/01:00am 24.0 26.2 19.1 74 3.2 SSW 6 9 3 5 1004.5 1002.9 0.6
21/12:30am 24.8 26.7 19.0 70 3.7 WNW 7 9 4 5 1004.6 1003.0 0.6
21/12:00am 24.8 27.0 19.2 71 3.6 W 6 11 3 6 1005.0 1003.4 0.6
 
Date/Time
EST
Temp
°C
App
Temp
°C
Dew
Point
°C
Rel
Hum
%
Delta-T
°C
Wind Press
QNH
hPa
Press
MSL
hPa
Rain since
9am
mm
Dir  Spd
km/h
Gust
km/h
Spd
kts
Gust
kts
20/11:30pm 24.7 27.4 18.6 69 3.9 WSW 2 9 1 5 1005.2 1003.6 0.6
20/11:00pm 26.0 26.6 18.7 64 4.7 SE 13 17 7 9 1005.7 1004.1 0.6
20/10:30pm 26.5 28.4 18.9 63 4.9 ESE 7 17 4 9 1005.9 1004.3 0.6
20/10:00pm 26.3 28.3 19.2 65 4.6 ESE 7 11 4 6 1006.1 1004.5 0.6
20/09:30pm 27.7 28.9 19.0 59 5.7 NNW 11 13 6 7 1005.6 1004.0 0.6

Other formats

Comma delimited format used in spreadsheet applications
http://www.bom.gov.au/fwo/IDQ60801/IDQ60801.94397.axf

JavaScript Object Notation format (JSON) in row-major order
http://www.bom.gov.au/fwo/IDQ60801/IDQ60801.94397.json

Data quality

Most of these data are generated automatically and are frequently updated. Quality checks on data are not normally performed. It is possible for incorrect values to appear. Refer to information at About Latest Weather Observations and please check the disclaimer before using these data.